Aviation Digital Data Service (ADDS)

Output produced by METARs form (1034 UTC 07 December 2016)
found at http://aviationweather.gov/adds/metars/
 
KMIV 070559Z 0706/0806 01009KT 6SM -DZ BR BKN006 OVC050 
     FM071400 34006KT P6SM SCT008 OVC013 
     FM071700 31008KT P6SM BKN022 
     FM071900 31011KT P6SM BKN035 BKN120 
     FM080000 30005KT P6SM SCT150